Time;durP1;ratioP1;P1;durP2;ratioP2;P2;SDS_P1;SDS_P2;PMS_P1;PMS_P2;Temp;Humidity;BMP_temperature;BMP_pressure;BME280_temperature;BME280_humidity;BME280_pressure;Samples;Min_cycle;Max_cycle;Signal;HPM_P1;HPM_P2
2024/04/09 00:00:53;;;;;;;27.20;5.50;;;;;;;;;;1905409;75;21089;-48
2024/04/09 00:03:23;;;;;;;14.45;3.95;;;;;;;;;;1905319;75;21051;-48
2024/04/09 00:05:54;;;;;;;13.35;4.87;;;;;;;;;;1905259;75;21124;-48
2024/04/09 00:08:21;;;;;;;11.38;5.87;;;;;;;;;;1905251;75;21477;-48
2024/04/09 00:10:50;;;;;;;8.55;3.80;;;;;;;;;;1905250;75;21114;-48
2024/04/09 00:13:20;;;;;;;12.55;4.08;;;;;;;;;;1905341;75;21027;-48
2024/04/09 00:15:49;;;;;;;8.95;4.42;;;;;;;;;;1905238;75;21071;-48
2024/04/09 00:18:18;;;;;;;9.43;5.83;;;;;;;;;;1905390;75;21043;-48
2024/04/09 00:20:53;;;;;;;9.45;3.85;;;;;;;;;;1905406;75;21015;-48
2024/04/09 00:23:17;;;;;;;9.73;4.20;;;;;;;;;;1903435;74;21489;-48
2024/04/09 00:25:45;;;;;;;8.10;3.65;;;;;;;;;;1905275;75;21095;-48
2024/04/09 00:28:14;;;;;;;5.75;3.42;;;;;;;;;;1905282;75;20999;-48
2024/04/09 00:30:44;;;;;;;13.25;4.20;;;;;;;;;;1905467;75;21031;-48
2024/04/09 00:33:17;;;;;;;8.20;4.30;;;;;;;;;;1905560;75;21541;-48
2024/04/09 00:35:47;;;;;;;6.33;4.37;;;;;;;;;;1905483;75;21027;-48
2024/04/09 00:38:19;;;;;;;7.70;5.03;;;;;;;;;;1905515;75;21019;-49
2024/04/09 00:40:47;;;;;;;13.72;5.60;;;;;;;;;;1905442;74;21507;-51
2024/04/09 00:43:15;;;;;;;8.60;5.67;;;;;;;;;;1905490;75;21015;-50
2024/04/09 00:45:45;;;;;;;7.42;5.50;;;;;;;;;;1905508;74;21047;-51
2024/04/09 00:48:16;;;;;;;9.10;4.83;;;;;;;;;;1905625;75;21019;-51
2024/04/09 00:50:45;;;;;;;8.98;4.28;;;;;;;;;;1905516;75;21027;-50
2024/04/09 00:53:16;;;;;;;8.58;4.55;;;;;;;;;;1905492;75;21020;-49
2024/04/09 00:55:44;;;;;;;15.93;5.05;;;;;;;;;;1905440;75;21522;-48
2024/04/09 00:58:13;;;;;;;12.85;5.25;;;;;;;;;;1905303;75;21055;-48
2024/04/09 01:00:41;;;;;;;8.70;4.47;;;;;;;;;;1905279;75;21071;-48
2024/04/09 01:03:11;;;;;;;10.82;4.22;;;;;;;;;;1905280;75;21023;-49
2024/04/09 01:05:40;;;;;;;10.90;4.78;;;;;;;;;;1905345;75;21036;-48
2024/04/09 01:08:08;;;;;;;6.80;3.77;;;;;;;;;;1905435;75;20991;-48
2024/04/09 01:10:37;;;;;;;7.35;4.90;;;;;;;;;;1905344;75;21114;-48
2024/04/09 01:13:05;;;;;;;9.30;4.80;;;;;;;;;;1905439;75;21151;-48
2024/04/09 01:15:35;;;;;;;8.15;3.87;;;;;;;;;;1905295;75;20991;-48
2024/04/09 01:18:04;;;;;;;6.05;3.58;;;;;;;;;;1905420;75;20980;-48
2024/04/09 01:20:32;;;;;;;6.62;3.70;;;;;;;;;;1905388;75;21008;-48
2024/04/09 01:23:01;;;;;;;7.78;4.55;;;;;;;;;;1905302;75;21075;-48
2024/04/09 01:25:30;;;;;;;5.83;3.77;;;;;;;;;;1905467;75;21012;-48
2024/04/09 01:27:58;;;;;;;8.30;4.40;;;;;;;;;;1905374;75;21083;-48
2024/04/09 01:30:27;;;;;;;9.60;4.33;;;;;;;;;;1905395;75;21030;-48
2024/04/09 01:32:55;;;;;;;8.38;3.55;;;;;;;;;;1905418;75;21094;-48
2024/04/09 01:35:24;;;;;;;10.88;5.70;;;;;;;;;;1905312;75;21063;-48
2024/04/09 01:37:53;;;;;;;9.25;3.83;;;;;;;;;;1905389;75;21011;-48
2024/04/09 01:40:22;;;;;;;7.03;3.77;;;;;;;;;;1905364;75;21059;-48
2024/04/09 01:42:50;;;;;;;4.78;3.75;;;;;;;;;;1905397;74;21093;-48
2024/04/09 01:45:19;;;;;;;8.05;3.40;;;;;;;;;;1905329;74;21177;-48
2024/04/09 01:47:49;;;;;;;6.90;3.70;;;;;;;;;;1905377;75;21142;-48
2024/04/09 01:50:17;;;;;;;7.37;2.80;;;;;;;;;;1905381;75;21035;-47
2024/04/09 01:52:48;;;;;;;5.95;3.92;;;;;;;;;;1905398;75;21027;-48
2024/04/09 01:55:17;;;;;;;6.85;3.90;;;;;;;;;;1905305;75;21489;-48
2024/04/09 01:57:46;;;;;;;5.53;3.60;;;;;;;;;;1905511;75;21106;-48
2024/04/09 02:00:21;;;;;;;6.05;4.50;;;;;;;;;;1905443;75;21087;-48
2024/04/09 02:02:52;;;;;;;8.83;4.25;;;;;;;;;;1905542;75;21093;-48
2024/04/09 02:05:20;;;;;;;7.97;3.60;;;;;;;;;;1904966;75;21077;-47
2024/04/09 02:07:49;;;;;;;9.60;3.35;;;;;;;;;;1905373;75;21089;-47
2024/04/09 02:10:18;;;;;;;6.12;3.80;;;;;;;;;;1905474;75;21016;-48
2024/04/09 02:12:47;;;;;;;6.80;3.35;;;;;;;;;;1905403;75;21061;-48
2024/04/09 02:15:17;;;;;;;6.40;3.60;;;;;;;;;;1905305;75;21087;-48
2024/04/09 02:17:46;;;;;;;6.28;3.58;;;;;;;;;;1905370;75;21073;-48
2024/04/09 02:20:14;;;;;;;6.47;3.90;;;;;;;;;;1905342;75;21028;-48
2024/04/09 02:22:43;;;;;;;10.63;4.53;;;;;;;;;;1905344;75;21032;-48
2024/04/09 02:25:12;;;;;;;6.70;3.72;;;;;;;;;;1905296;75;21181;-47
2024/04/09 02:27:40;;;;;;;7.70;4.03;;;;;;;;;;1905219;75;21170;-47
2024/04/09 02:30:09;;;;;;;8.68;4.67;;;;;;;;;;1905254;75;21149;-48
2024/04/09 02:32:38;;;;;;;6.90;3.90;;;;;;;;;;1905256;75;21028;-47
2024/04/09 02:35:10;;;;;;;10.30;4.90;;;;;;;;;;1905186;75;21039;-47
2024/04/09 02:37:38;;;;;;;7.60;3.92;;;;;;;;;;1905164;75;21043;-48
2024/04/09 02:40:14;;;;;;;7.90;3.85;;;;;;;;;;1905182;75;21024;-47
2024/04/09 02:42:37;;;;;;;8.85;4.00;;;;;;;;;;1904644;74;21426;-47
2024/04/09 02:45:06;;;;;;;6.05;3.83;;;;;;;;;;1905176;75;21027;-47
2024/04/09 02:47:35;;;;;;;11.90;4.72;;;;;;;;;;1922134;74;21058;-48
2024/04/09 02:50:04;;;;;;;9.18;4.35;;;;;;;;;;1924675;74;21136;-48
2024/04/09 02:52:32;;;;;;;18.45;5.28;;;;;;;;;;1924611;74;21007;-48
2024/04/09 02:55:01;;;;;;;21.40;6.53;;;;;;;;;;1924556;74;21031;-48
2024/04/09 02:57:30;;;;;;;14.05;4.90;;;;;;;;;;1924713;74;21023;-48
2024/04/09 02:59:59;;;;;;;7.97;4.50;;;;;;;;;;1924564;74;21076;-48
2024/04/09 03:02:28;;;;;;;8.73;4.60;;;;;;;;;;1924705;74;21020;-48
2024/04/09 03:04:57;;;;;;;9.13;4.12;;;;;;;;;;1924479;74;21030;-49
2024/04/09 03:07:26;;;;;;;7.30;3.98;;;;;;;;;;1924598;74;21136;-48
2024/04/09 03:09:54;;;;;;;8.83;4.45;;;;;;;;;;1924692;74;21096;-47
2024/04/09 03:12:23;;;;;;;18.10;6.28;;;;;;;;;;1924698;74;21006;-48
2024/04/09 03:14:52;;;;;;;15.90;6.22;;;;;;;;;;1924520;74;21127;-49
2024/04/09 03:17:20;;;;;;;19.80;5.50;;;;;;;;;;1924652;74;21092;-47
2024/04/09 03:19:49;;;;;;;9.93;5.30;;;;;;;;;;1924642;74;20999;-48
2024/04/09 03:22:18;;;;;;;18.45;6.15;;;;;;;;;;1924689;74;20998;-47
2024/04/09 03:24:48;;;;;;;18.70;6.72;;;;;;;;;;1924614;74;21010;-47
2024/04/09 03:27:16;;;;;;;37.40;7.95;;;;;;;;;;1923961;74;21096;-47
2024/04/09 03:29:46;;;;;;;22.10;6.12;;;;;;;;;;1924687;74;21123;-48
2024/04/09 03:32:15;;;;;;;17.37;6.12;;;;;;;;;;1924541;74;21039;-48
2024/04/09 03:34:45;;;;;;;18.42;6.37;;;;;;;;;;1924650;74;21015;-47
2024/04/09 03:37:13;;;;;;;13.00;6.40;;;;;;;;;;1924536;74;21062;-48
2024/04/09 03:39:42;;;;;;;8.93;5.10;;;;;;;;;;1924573;74;21153;-47
2024/04/09 03:42:11;;;;;;;13.22;5.25;;;;;;;;;;1924575;74;21096;-48
2024/04/09 03:44:40;;;;;;;10.60;4.83;;;;;;;;;;1924642;74;21092;-48
2024/04/09 03:47:08;;;;;;;7.47;4.10;;;;;;;;;;1914861;74;21051;-48
2024/04/09 03:49:37;;;;;;;9.58;5.25;;;;;;;;;;1905353;75;21032;-49
2024/04/09 03:52:06;;;;;;;10.25;5.12;;;;;;;;;;1905296;75;21066;-48
2024/04/09 03:54:35;;;;;;;11.85;5.60;;;;;;;;;;1905295;75;20999;-48
2024/04/09 03:57:04;;;;;;;10.03;5.42;;;;;;;;;;1905276;75;21020;-48
2024/04/09 03:59:37;;;;;;;10.95;5.00;;;;;;;;;;1905344;74;21027;-47
2024/04/09 04:02:03;;;;;;;6.00;4.80;;;;;;;;;;1903319;74;21578;-47
2024/04/09 04:04:31;;;;;;;9.60;4.95;;;;;;;;;;1905281;75;21035;-48
2024/04/09 04:07:00;;;;;;;8.85;5.25;;;;;;;;;;1905278;75;21032;-48
2024/04/09 04:09:29;;;;;;;9.78;5.28;;;;;;;;;;1905431;75;21000;-49
2024/04/09 04:11:57;;;;;;;10.82;5.35;;;;;;;;;;1905240;75;21484;-48
2024/04/09 04:14:26;;;;;;;8.10;5.10;;;;;;;;;;1905283;75;21285;-49
2024/04/09 04:16:55;;;;;;;7.85;5.05;;;;;;;;;;1905380;75;21031;-48
2024/04/09 04:19:23;;;;;;;8.35;4.85;;;;;;;;;;1905297;75;21041;-49
2024/04/09 04:21:52;;;;;;;11.22;5.60;;;;;;;;;;1905397;75;21066;-48
2024/04/09 04:24:20;;;;;;;12.25;5.03;;;;;;;;;;1905259;75;21087;-48
2024/04/09 04:26:49;;;;;;;61.08;10.85;;;;;;;;;;1905282;75;21031;-48
2024/04/09 04:29:18;;;;;;;11.50;5.35;;;;;;;;;;1905291;75;21008;-49
2024/04/09 04:31:46;;;;;;;10.43;5.62;;;;;;;;;;1905259;75;21013;-50
2024/04/09 04:34:15;;;;;;;7.83;5.30;;;;;;;;;;1905300;75;21027;-48
2024/04/09 04:36:44;;;;;;;17.73;5.75;;;;;;;;;;1905286;75;21085;-48
2024/04/09 04:39:13;;;;;;;9.98;5.45;;;;;;;;;;1905375;75;21097;-49
2024/04/09 04:41:41;;;;;;;9.95;6.05;;;;;;;;;;1905331;75;21034;-48
2024/04/09 04:44:11;;;;;;;22.00;8.60;;;;;;;;;;1905360;75;21109;-48
2024/04/09 04:46:39;;;;;;;17.27;9.63;;;;;;;;;;1907120;74;21078;-51
2024/04/09 04:49:09;;;;;;;14.63;8.58;;;;;;;;;;1924786;74;21007;-50
2024/04/09 04:51:38;;;;;;;10.13;6.03;;;;;;;;;;1924754;74;21064;-51
2024/04/09 04:54:06;;;;;;;9.30;6.08;;;;;;;;;;1924821;74;21026;-51
2024/04/09 04:56:35;;;;;;;10.23;5.45;;;;;;;;;;1924687;74;21081;-51
2024/04/09 04:59:03;;;;;;;12.85;5.80;;;;;;;;;;1924870;74;21034;-50
2024/04/09 05:01:32;;;;;;;10.28;5.20;;;;;;;;;;1924714;74;21034;-49
2024/04/09 05:04:01;;;;;;;6.30;4.22;;;;;;;;;;1924511;74;21092;-48
2024/04/09 05:06:30;;;;;;;11.57;5.33;;;;;;;;;;1924522;74;21007;-48
2024/04/09 05:08:58;;;;;;;13.15;4.33;;;;;;;;;;1924545;74;21022;-49
2024/04/09 05:11:27;;;;;;;10.70;4.62;;;;;;;;;;1924559;74;21089;-48
2024/04/09 05:13:55;;;;;;;14.98;4.40;;;;;;;;;;1924746;74;21035;-49
2024/04/09 05:16:25;;;;;;;7.83;4.00;;;;;;;;;;1924500;74;21099;-49
2024/04/09 05:18:53;;;;;;;9.30;4.00;;;;;;;;;;1924562;74;21006;-49
2024/04/09 05:21:22;;;;;;;9.83;4.90;;;;;;;;;;1924695;74;21396;-48
2024/04/09 05:23:51;;;;;;;8.58;5.58;;;;;;;;;;1924549;74;21031;-50
2024/04/09 05:26:19;;;;;;;12.33;5.47;;;;;;;;;;1924435;74;21023;-49
2024/04/09 05:28:48;;;;;;;12.95;4.80;;;;;;;;;;1924482;74;21014;-48
2024/04/09 05:31:16;;;;;;;9.90;4.83;;;;;;;;;;1924520;74;21011;-48
2024/04/09 05:33:44;;;;;;;7.42;4.97;;;;;;;;;;1924662;74;21010;-49
2024/04/09 05:36:13;;;;;;;5.20;4.30;;;;;;;;;;1924530;74;21088;-49
2024/04/09 05:38:42;;;;;;;7.25;4.40;;;;;;;;;;1924710;74;21063;-49
2024/04/09 05:41:11;;;;;;;13.62;4.47;;;;;;;;;;1924695;74;21010;-51
2024/04/09 05:43:40;;;;;;;10.48;5.12;;;;;;;;;;1924584;74;21015;-48
2024/04/09 05:46:09;;;;;;;9.55;5.08;;;;;;;;;;1924620;74;21027;-48
2024/04/09 05:48:38;;;;;;;6.35;5.22;;;;;;;;;;1911199;74;21105;-48
2024/04/09 05:51:06;;;;;;;6.50;4.83;;;;;;;;;;1905183;75;21032;-48
2024/04/09 05:53:35;;;;;;;11.73;5.55;;;;;;;;;;1905221;75;21016;-48
2024/04/09 05:56:04;;;;;;;13.15;5.33;;;;;;;;;;1905141;74;21019;-48
2024/04/09 05:58:33;;;;;;;12.43;6.55;;;;;;;;;;1905229;74;21055;-48
2024/04/09 06:01:01;;;;;;;6.42;4.30;;;;;;;;;;1905265;75;21154;-48
2024/04/09 06:03:30;;;;;;;10.08;4.25;;;;;;;;;;1905194;75;21032;-48
2024/04/09 06:05:59;;;;;;;7.85;5.03;;;;;;;;;;1905176;75;21024;-48
2024/04/09 06:08:27;;;;;;;31.02;5.87;;;;;;;;;;1905179;75;21094;-48
2024/04/09 06:10:56;;;;;;;8.80;4.47;;;;;;;;;;1905427;75;21000;-48
2024/04/09 06:13:24;;;;;;;13.18;5.05;;;;;;;;;;1905229;75;21144;-49
2024/04/09 06:15:53;;;;;;;16.07;5.17;;;;;;;;;;1905116;75;21038;-48
2024/04/09 06:18:21;;;;;;;18.82;6.90;;;;;;;;;;1905419;75;21081;-49
2024/04/09 06:20:50;;;;;;;10.93;4.45;;;;;;;;;;1905290;75;21023;-48
2024/04/09 06:23:19;;;;;;;12.18;4.50;;;;;;;;;;1905199;75;21032;-48
2024/04/09 06:25:58;;;;;;;7.70;4.75;;;;;;;;;;1905154;75;21028;-49
2024/04/09 06:28:24;;;;;;;13.55;5.28;;;;;;;;;;1903310;74;21542;-48
2024/04/09 06:30:53;;;;;;;9.53;4.92;;;;;;;;;;1905269;74;21071;-48
2024/04/09 06:33:22;;;;;;;14.73;6.42;;;;;;;;;;1905231;75;21081;-48
2024/04/09 06:35:50;;;;;;;22.85;6.90;;;;;;;;;;1905207;75;21099;-48
2024/04/09 06:38:20;;;;;;;11.43;5.08;;;;;;;;;;1905218;75;21031;-48
2024/04/09 06:40:49;;;;;;;14.55;6.05;;;;;;;;;;1905190;74;21061;-48
2024/04/09 06:43:17;;;;;;;13.58;5.87;;;;;;;;;;1905201;75;21077;-48
2024/04/09 06:45:46;;;;;;;9.38;5.05;;;;;;;;;;1905209;75;21091;-49
2024/04/09 06:48:15;;;;;;;9.88;5.22;;;;;;;;;;1905235;74;21039;-49
2024/04/09 06:50:44;;;;;;;9.80;5.28;;;;;;;;;;1905189;75;21132;-49
2024/04/09 06:53:12;;;;;;;11.70;5.10;;;;;;;;;;1905246;75;21489;-49
2024/04/09 06:55:41;;;;;;;8.45;4.95;;;;;;;;;;1905314;75;21073;-49
2024/04/09 06:58:10;;;;;;;7.78;4.65;;;;;;;;;;1905385;75;21032;-48
2024/04/09 07:00:39;;;;;;;7.78;4.37;;;;;;;;;;1905290;75;21082;-48
2024/04/09 07:03:07;;;;;;;6.05;3.55;;;;;;;;;;1905487;75;21012;-49
2024/04/09 07:05:36;;;;;;;13.65;4.62;;;;;;;;;;1905436;75;21086;-49
2024/04/09 07:08:05;;;;;;;6.75;4.17;;;;;;;;;;1905320;75;21105;-49
2024/04/09 07:10:34;;;;;;;9.45;4.42;;;;;;;;;;1905372;75;21047;-49
2024/04/09 07:13:02;;;;;;;6.95;3.85;;;;;;;;;;1905319;75;21039;-48
2024/04/09 07:15:31;;;;;;;7.65;4.50;;;;;;;;;;1905426;75;21075;-48
2024/04/09 07:18:00;;;;;;;5.78;4.00;;;;;;;;;;1905358;75;21003;-48
2024/04/09 07:20:28;;;;;;;7.60;3.85;;;;;;;;;;1905344;75;21079;-49
2024/04/09 07:22:57;;;;;;;8.50;3.83;;;;;;;;;;1905512;75;21027;-49
2024/04/09 07:25:27;;;;;;;6.55;3.98;;;;;;;;;;1905465;75;21165;-48
2024/04/09 07:27:56;;;;;;;7.20;4.53;;;;;;;;;;1905313;75;21023;-48
2024/04/09 07:30:25;;;;;;;4.35;3.37;;;;;;;;;;1905344;75;21023;-49
2024/04/09 07:32:53;;;;;;;4.78;3.92;;;;;;;;;;1905368;75;21583;-48
2024/04/09 07:35:22;;;;;;;7.35;4.05;;;;;;;;;;1905463;75;21019;-49
2024/04/09 07:37:50;;;;;;;8.50;4.58;;;;;;;;;;1905512;75;21028;-49
2024/04/09 07:40:19;;;;;;;7.12;4.22;;;;;;;;;;1905398;75;21144;-49
2024/04/09 07:42:48;;;;;;;6.85;3.85;;;;;;;;;;1905397;75;21027;-49
2024/04/09 07:45:16;;;;;;;5.90;4.33;;;;;;;;;;1905447;75;21141;-49
2024/04/09 07:47:49;;;;;;;14.03;5.10;;;;;;;;;;1905378;75;21016;-49
2024/04/09 07:50:15;;;;;;;6.05;3.85;;;;;;;;;;1905136;74;21485;-49
2024/04/09 07:52:44;;;;;;;11.00;4.95;;;;;;;;;;1905369;75;21120;-49
2024/04/09 07:55:13;;;;;;;5.80;4.22;;;;;;;;;;1905339;75;21028;-49
2024/04/09 07:57:45;;;;;;;5.05;3.65;;;;;;;;;;1905416;75;21105;-49
2024/04/09 08:00:14;;;;;;;8.65;4.10;;;;;;;;;;1905404;75;21059;-49
2024/04/09 08:02:42;;;;;;;13.55;4.40;;;;;;;;;;1905395;75;21024;-49
2024/04/09 08:05:12;;;;;;;7.58;4.10;;;;;;;;;;1905297;75;21073;-49
2024/04/09 08:07:41;;;;;;;11.95;4.90;;;;;;;;;;1905396;75;21446;-49
2024/04/09 08:10:19;;;;;;;8.43;4.67;;;;;;;;;;1905294;75;21400;-49
2024/04/09 08:12:51;;;;;;;9.95;4.30;;;;;;;;;;1902989;74;21113;-50
2024/04/09 08:15:20;;;;;;;5.08;4.00;;;;;;;;;;1905330;75;21035;-49
2024/04/09 08:17:49;;;;;;;11.70;4.25;;;;;;;;;;1905309;75;21138;-49
2024/04/09 08:20:21;;;;;;;10.72;4.80;;;;;;;;;;1905254;75;21031;-48
2024/04/09 08:22:49;;;;;;;6.75;4.40;;;;;;;;;;1905337;75;21013;-50
2024/04/09 08:25:18;;;;;;;9.08;4.60;;;;;;;;;;1905237;75;21090;-47
2024/04/09 08:27:47;;;;;;;6.58;4.40;;;;;;;;;;1905311;75;21097;-48
2024/04/09 08:30:23;;;;;;;5.92;4.62;;;;;;;;;;1905337;75;21043;-48
2024/04/09 08:32:50;;;;;;;8.75;4.08;;;;;;;;;;1905249;74;21020;-48
2024/04/09 08:35:19;;;;;;;10.48;4.87;;;;;;;;;;1905202;75;21019;-49
2024/04/09 08:37:47;;;;;;;8.85;4.97;;;;;;;;;;1881794;75;21110;-47
2024/04/09 08:40:19;;;;;;;8.78;5.05;;;;;;;;;;1877385;75;21003;-47
2024/04/09 08:42:50;;;;;;;9.60;5.15;;;;;;;;;;1890577;75;21018;-47
2024/04/09 08:45:19;;;;;;;9.08;4.45;;;;;;;;;;1883072;75;21103;-47
2024/04/09 08:47:49;;;;;;;5.92;4.72;;;;;;;;;;1900739;75;21098;-46
2024/04/09 08:50:17;;;;;;;8.70;5.37;;;;;;;;;;1905213;75;21111;-47
2024/04/09 08:52:47;;;;;;;4.97;4.47;;;;;;;;;;1900544;75;21017;-48
2024/04/09 08:55:17;;;;;;;7.87;4.42;;;;;;;;;;1886759;75;21029;-49
2024/04/09 08:57:45;;;;;;;12.85;5.12;;;;;;;;;;1887489;75;21001;-50
2024/04/09 09:00:16;;;;;;;10.00;5.10;;;;;;;;;;1888496;75;21113;-50
2024/04/09 09:02:48;;;;;;;6.12;4.83;;;;;;;;;;1890504;75;21079;-48
2024/04/09 09:05:17;;;;;;;11.60;5.60;;;;;;;;;;1889691;75;21028;-48
2024/04/09 09:07:46;;;;;;;36.75;20.32;;;;;;;;;;1886075;75;21079;-49
2024/04/09 09:10:15;;;;;;;13.72;6.65;;;;;;;;;;1889304;75;21021;-48
2024/04/09 09:12:43;;;;;;;9.55;4.78;;;;;;;;;;1887116;75;21185;-49
2024/04/09 09:15:13;;;;;;;10.23;5.45;;;;;;;;;;1888820;75;21036;-48
2024/04/09 09:17:43;;;;;;;8.15;5.40;;;;;;;;;;1890398;74;21008;-48
2024/04/09 09:20:16;;;;;;;7.05;5.28;;;;;;;;;;1889055;75;21004;-48
2024/04/09 09:22:45;;;;;;;8.73;4.95;;;;;;;;;;1890342;75;21497;-48
2024/04/09 09:25:15;;;;;;;13.00;5.28;;;;;;;;;;1888846;75;21056;-48
2024/04/09 09:27:44;;;;;;;7.70;4.60;;;;;;;;;;1892336;75;21130;-48
2024/04/09 09:30:14;;;;;;;8.85;4.90;;;;;;;;;;1888696;75;21097;-49
2024/04/09 09:32:44;;;;;;;7.67;5.08;;;;;;;;;;1890425;75;21000;-47
2024/04/09 09:35:17;;;;;;;7.45;5.20;;;;;;;;;;1888685;75;21040;-48
2024/04/09 09:37:49;;;;;;;13.85;6.37;;;;;;;;;;1886759;75;20981;-48
2024/04/09 09:40:18;;;;;;;10.25;5.25;;;;;;;;;;1887717;75;21073;-48
2024/04/09 09:42:47;;;;;;;7.37;5.12;;;;;;;;;;1890523;75;21081;-49
2024/04/09 09:45:16;;;;;;;11.00;5.28;;;;;;;;;;1889199;75;21158;-49
2024/04/09 09:47:45;;;;;;;6.78;5.12;;;;;;;;;;1885572;75;21087;-51
2024/04/09 09:50:14;;;;;;;10.32;5.20;;;;;;;;;;1890557;75;21148;-50
2024/04/09 09:52:43;;;;;;;7.70;5.60;;;;;;;;;;1890293;75;21135;-49
2024/04/09 09:55:12;;;;;;;27.20;7.12;;;;;;;;;;1881499;76;21080;-49
2024/04/09 09:57:41;;;;;;;8.58;5.92;;;;;;;;;;1881682;76;21117;-51
2024/04/09 10:00:11;;;;;;;6.75;4.67;;;;;;;;;;1881680;76;21072;-49
2024/04/09 10:02:44;;;;;;;7.08;5.20;;;;;;;;;;1881529;76;20990;-52
2024/04/09 10:05:14;;;;;;;7.80;5.25;;;;;;;;;;1881702;76;21037;-50
2024/04/09 10:07:45;;;;;;;17.05;5.78;;;;;;;;;;1881531;76;21046;-49
2024/04/09 10:10:15;;;;;;;10.50;4.83;;;;;;;;;;1881531;76;21077;-49
2024/04/09 10:12:44;;;;;;;8.43;5.22;;;;;;;;;;1879877;76;21046;-48
2024/04/09 10:15:17;;;;;;;11.22;4.97;;;;;;;;;;1881489;76;21034;-50
2024/04/09 10:17:53;;;;;;;10.03;5.58;;;;;;;;;;1881616;76;21017;-48
2024/04/09 10:20:22;;;;;;;11.18;5.42;;;;;;;;;;1881261;76;21018;-47
2024/04/09 10:22:52;;;;;;;12.82;5.62;;;;;;;;;;1882013;76;21017;-49
2024/04/09 10:25:21;;;;;;;16.93;5.37;;;;;;;;;;1882150;76;21444;-49
2024/04/09 10:28:03;;;;;;;12.88;5.90;;;;;;;;;;1882110;76;21022;-50
2024/04/09 10:30:32;;;;;;;10.00;5.15;;;;;;;;;;1882163;76;21104;-52
2024/04/09 10:33:01;;;;;;;11.38;5.47;;;;;;;;;;1882160;76;21018;-50
2024/04/09 10:35:30;;;;;;;9.08;5.10;;;;;;;;;;1882072;76;20997;-52
2024/04/09 10:37:59;;;;;;;6.78;4.50;;;;;;;;;;1882176;76;21022;-51
2024/04/09 10:40:28;;;;;;;8.48;4.67;;;;;;;;;;1882178;76;21042;-51
2024/04/09 10:42:58;;;;;;;16.05;5.00;;;;;;;;;;1880739;76;21069;-49
2024/04/09 10:45:26;;;;;;;8.35;5.30;;;;;;;;;;1882006;75;21084;-50
2024/04/09 10:47:55;;;;;;;8.05;5.47;;;;;;;;;;1903513;75;21163;-48
2024/04/09 10:50:24;;;;;;;11.08;5.55;;;;;;;;;;1908327;75;21184;-49
2024/04/09 10:52:53;;;;;;;14.38;5.40;;;;;;;;;;1902920;75;21098;-49
2024/04/09 10:55:22;;;;;;;7.70;5.03;;;;;;;;;;1902558;75;21007;-48
2024/04/09 10:57:51;;;;;;;5.25;4.22;;;;;;;;;;1901812;75;21082;-49
2024/04/09 11:00:20;;;;;;;25.95;5.45;;;;;;;;;;1890039;75;20988;-49
2024/04/09 11:02:48;;;;;;;11.60;9.85;;;;;;;;;;1894424;75;21324;-45
2024/04/09 11:05:19;;;;;;;9.13;5.78;;;;;;;;;;1892875;75;21055;-46
2024/04/09 11:07:49;;;;;;;7.00;4.53;;;;;;;;;;1889393;75;21025;-45
2024/04/09 11:10:22;;;;;;;14.45;5.72;;;;;;;;;;1891316;75;21099;-46
2024/04/09 11:12:53;;;;;;;17.77;6.03;;;;;;;;;;1874013;75;21118;-46
2024/04/09 11:15:21;;;;;;;11.50;5.95;;;;;;;;;;1887327;75;21079;-45
2024/04/09 11:17:50;;;;;;;7.12;4.47;;;;;;;;;;1878244;75;21020;-48
2024/04/09 11:20:19;;;;;;;11.25;4.83;;;;;;;;;;1880015;75;21140;-45
2024/04/09 11:22:54;;;;;;;8.90;6.00;;;;;;;;;;1889373;75;21041;-46
2024/04/09 11:25:25;;;;;;;8.40;5.25;;;;;;;;;;1878092;75;21508;-45
2024/04/09 11:27:54;;;;;;;6.37;4.97;;;;;;;;;;1888010;75;21091;-45
2024/04/09 11:30:28;;;;;;;11.50;5.90;;;;;;;;;;1886595;75;21091;-44
2024/04/09 11:32:57;;;;;;;11.00;4.87;;;;;;;;;;1881911;74;21473;-44
2024/04/09 11:35:26;;;;;;;19.45;5.42;;;;;;;;;;1887858;75;21451;-44
2024/04/09 11:37:55;;;;;;;8.50;6.30;;;;;;;;;;1886321;75;21092;-44
2024/04/09 11:40:24;;;;;;;10.60;6.10;;;;;;;;;;1893468;75;21075;-45
2024/04/09 11:42:53;;;;;;;16.30;5.53;;;;;;;;;;1885168;75;21008;-44
2024/04/09 11:45:22;;;;;;;16.50;6.55;;;;;;;;;;1894973;75;21095;-45
2024/04/09 11:47:51;;;;;;;7.03;4.72;;;;;;;;;;1890408;75;21164;-45
2024/04/09 11:50:21;;;;;;;12.63;7.08;;;;;;;;;;1897654;75;21162;-44
2024/04/09 11:52:51;;;;;;;12.75;5.37;;;;;;;;;;1886611;75;21150;-46
2024/04/09 11:55:20;;;;;;;6.15;4.50;;;;;;;;;;1884654;75;21019;-45
2024/04/09 11:57:49;;;;;;;7.92;4.78;;;;;;;;;;1889658;75;21112;-45
2024/04/09 12:00:18;;;;;;;16.27;5.30;;;;;;;;;;1878322;75;21095;-46
2024/04/09 12:02:46;;;;;;;7.28;4.85;;;;;;;;;;1896383;75;21143;-46
2024/04/09 12:05:15;;;;;;;7.58;4.42;;;;;;;;;;1894359;75;21055;-45
2024/04/09 12:07:43;;;;;;;6.03;4.15;;;;;;;;;;1889062;75;21090;-46
2024/04/09 12:10:12;;;;;;;9.78;4.47;;;;;;;;;;1894062;75;21229;-46
2024/04/09 12:12:41;;;;;;;7.25;4.30;;;;;;;;;;1891300;75;21105;-45
2024/04/09 12:15:10;;;;;;;8.60;4.45;;;;;;;;;;1888326;75;21055;-46
2024/04/09 12:17:39;;;;;;;7.95;4.92;;;;;;;;;;1896216;75;21048;-46
2024/04/09 12:20:09;;;;;;;15.80;4.90;;;;;;;;;;1885611;75;21025;-46
2024/04/09 12:22:37;;;;;;;11.12;4.50;;;;;;;;;;1882786;75;21041;-45
2024/04/09 12:25:06;;;;;;;9.53;4.85;;;;;;;;;;1898693;75;21031;-46
2024/04/09 12:27:35;;;;;;;7.80;4.45;;;;;;;;;;1898477;75;21137;-46
2024/04/09 12:30:08;;;;;;;7.78;4.33;;;;;;;;;;1872928;75;21098;-46
2024/04/09 12:32:34;;;;;;;9.95;4.28;;;;;;;;;;1887104;75;21462;-45
2024/04/09 12:35:03;;;;;;;10.75;4.20;;;;;;;;;;1884057;75;21103;-45
2024/04/09 12:37:32;;;;;;;11.05;5.25;;;;;;;;;;1881366;75;21150;-46
2024/04/09 12:40:01;;;;;;;11.18;3.80;;;;;;;;;;1886037;75;21019;-46
2024/04/09 12:42:30;;;;;;;12.82;4.47;;;;;;;;;;1887250;75;21015;-46
2024/04/09 12:44:58;;;;;;;12.20;4.28;;;;;;;;;;1891210;75;21035;-46
2024/04/09 12:47:27;;;;;;;9.50;4.40;;;;;;;;;;1884821;75;21045;-50
2024/04/09 12:49:55;;;;;;;6.78;3.67;;;;;;;;;;1889875;75;21100;-46
2024/04/09 12:52:24;;;;;;;5.37;4.12;;;;;;;;;;1904386;74;21055;-47
2024/04/09 12:54:53;;;;;;;6.95;4.22;;;;;;;;;;1904554;74;21058;-47
2024/04/09 12:57:21;;;;;;;17.17;9.90;;;;;;;;;;1906441;74;21087;-49
2024/04/09 12:59:50;;;;;;;9.23;5.10;;;;;;;;;;1917189;74;21034;-46
2024/04/09 13:02:19;;;;;;;11.43;4.95;;;;;;;;;;1903508;74;21036;-46
2024/04/09 13:04:49;;;;;;;8.65;4.70;;;;;;;;;;1901083;74;21094;-49
2024/04/09 13:07:17;;;;;;;11.55;5.25;;;;;;;;;;1891060;76;20999;-52
2024/04/09 13:09:46;;;;;;;7.17;3.98;;;;;;;;;;1891500;76;20998;-53
2024/04/09 13:12:14;;;;;;;6.25;4.58;;;;;;;;;;1891526;76;21034;-52
2024/04/09 13:14:43;;;;;;;8.25;4.25;;;;;;;;;;1891493;76;20998;-51
2024/04/09 13:17:12;;;;;;;9.58;4.05;;;;;;;;;;1890752;76;21090;-50
2024/04/09 13:19:40;;;;;;;11.70;5.28;;;;;;;;;;1891329;76;21026;-51
2024/04/09 13:22:09;;;;;;;9.65;4.42;;;;;;;;;;1891543;76;21058;-52
2024/04/09 13:24:38;;;;;;;9.15;4.75;;;;;;;;;;1891619;76;21036;-50
2024/04/09 13:27:06;;;;;;;8.85;4.62;;;;;;;;;;1891475;75;21038;-52
2024/04/09 13:29:35;;;;;;;17.82;4.90;;;;;;;;;;1891491;76;21062;-51
2024/04/09 13:32:04;;;;;;;6.15;3.92;;;;;;;;;;1891489;76;21031;-50
2024/04/09 13:34:32;;;;;;;11.20;4.97;;;;;;;;;;1891496;76;21034;-50
2024/04/09 13:37:01;;;;;;;12.45;5.03;;;;;;;;;;1891509;76;21014;-51
2024/04/09 13:39:30;;;;;;;7.33;4.97;;;;;;;;;;1891578;75;21034;-50
2024/04/09 13:41:59;;;;;;;14.05;5.70;;;;;;;;;;1891502;75;21058;-51
2024/04/09 13:44:27;;;;;;;9.05;5.70;;;;;;;;;;1891447;76;21076;-53
2024/04/09 13:46:56;;;;;;;9.45;4.55;;;;;;;;;;1891495;76;21019;-53
2024/04/09 13:49:24;;;;;;;7.15;4.08;;;;;;;;;;1891482;75;21104;-50
2024/04/09 13:51:53;;;;;;;5.80;3.52;;;;;;;;;;1884560;76;21133;-50
2024/04/09 13:54:22;;;;;;;7.00;5.87;;;;;;;;;;1872735;76;21043;-53
2024/04/09 13:56:51;;;;;;;7.97;4.87;;;;;;;;;;1872755;77;21101;-52
2024/04/09 13:59:19;;;;;;;9.13;4.92;;;;;;;;;;1872864;76;21039;-51
2024/04/09 14:01:48;;;;;;;7.55;4.97;;;;;;;;;;1872717;77;21031;-52
2024/04/09 14:28:48;;;;;;;9.00;6.00;;;21.90;60.00;;;;;;1959278;72;26244;-53
2024/04/09 14:31:17;;;;;;;6.75;4.97;;;21.70;60.50;;;;;;1918446;74;21542;-54
2024/04/09 14:33:46;;;;;;;5.25;4.75;;;21.70;60.70;;;;;;1918368;75;21417;-53
2024/04/09 14:36:15;;;;;;;6.78;3.95;;;21.70;60.70;;;;;;1918222;75;21019;-53
2024/04/09 14:38:44;;;;;;;11.35;5.45;;;21.70;60.70;;;;;;1918344;75;21080;-54
2024/04/09 14:41:16;;;;;;;5.92;4.10;;;21.70;60.90;;;;;;1918342;75;21003;-54
2024/04/09 14:43:44;;;;;;;10.53;5.00;;;21.70;60.90;;;;;;1918397;74;21441;-55
2024/04/09 14:46:16;;;;;;;10.90;5.17;;;21.70;61.10;;;;;;1918422;75;21007;-55
2024/04/09 14:48:45;;;;;;;9.18;5.00;;;21.60;61.10;;;;;;1918495;75;21088;-55
2024/04/09 14:51:14;;;;;;;12.68;5.22;;;21.70;61.20;;;;;;1918456;74;21061;-55
2024/04/09 14:53:43;;;;;;;8.33;5.58;;;21.60;61.10;;;;;;1918536;75;21003;-55
2024/04/09 14:56:12;;;;;;;7.42;5.00;;;21.60;61.10;;;;;;1918334;74;21084;-54
2024/04/09 14:58:41;;;;;;;11.65;5.30;;;21.60;61.30;;;;;;1918298;75;21022;-54
2024/04/09 15:01:10;;;;;;;9.08;5.72;;;21.60;61.40;;;;;;1918317;75;21011;-54
2024/04/09 15:03:40;;;;;;;13.68;6.35;;;21.50;61.50;;;;;;1918298;75;21532;-54
2024/04/09 15:06:10;;;;;;;8.43;5.45;;;21.50;61.60;;;;;;1918380;75;21074;-53